Terminal Aerodrome Forecast
Issued by NWS

Home | Current Version | Previous Version | Text Only | Print | Product List | Glossary On
Versions: 1 2 3 4 5 6 7 8 9 10 11 12
000
FTUS44 KLIX 192340
TAFHUM
TAF
KHUM 192340Z 2000/2024 09009KT P6SM SCT024
     FM200900 08006KT P6SM FEW250
     FM201600 09010KT P6SM FEW030 SCT110
     FM201800 10011KT P6SM SCT035 BKN090 PROB30 2018/2022 4SM -TSRA
      BKN025CB=

USA.gov is the U.S. government's official web portal to all federal, state and local government web resources and services.